Monday, December 18, 2017, 4:52 AM CST
Back to Local

KIAB, Mcconnell Air Force Base

Location: Wichita, KS, United States Lat: 37.617
Local Time: 4:52 AM CST (10:52 GMT) Lon: -97.267
Time Zone: US/Central Elev: 1371 ft

Show me the last for .
Show Decoded

2017-12-18 04:29 METAR KIAB 181029Z AUTO 00000KT 3SM BR CLR M01/M02 A3008 RMK AO2 VIS 3/8 RWY01
                 SLP198 $ =
2017-12-18 04:28 METAR KIAB 181028Z AUTO 00000KT 2 1/2SM BR CLR M01/M02 A3008 RMK AO2 VIS 1/2V2
                 1/2 VIS 3/8 RWY01 SLP198 $ =
2017-12-18 04:27 METAR KIAB 181027Z AUTO 00000KT 2SM BR CLR M02/M02 A3008 RMK AO2 VIS 1/2V2 VIS
                 3/8 RWY01 SLP198 $ =
2017-12-18 04:24 METAR KIAB 181024Z AUTO 00000KT 1 1/2SM R19/6000FT BR CLR M02/M02 A3008 RMK AO2
                 VIS 3/8V1 1/2 VIS 3/8 RWY01 SLP198 $ =
2017-12-18 04:23 METAR KIAB 181023Z AUTO 00000KT 1 1/4SM R19/5500FT BR CLR M02/M02 A3008 RMK AO2
                 VIS 3/8V1 1/4 VIS 3/8 RWY01 SLP198 $ =
2017-12-18 04:22 METAR KIAB 181022Z AUTO 00000KT 1SM R19/2600VP6000FT BR CLR M02/M02 A3008 RMK
                 AO2 VIS 1/4V1 VIS 3/8 RWY01 SLP198 $ =
2017-12-18 04:21 METAR KIAB 181021Z AUTO 00000KT 3/4SM R19/2400VP6000FT BR CLR M02/M02 A3008 RMK
                 AO2 VIS 1/4V3/4 SLP198 $ =
2017-12-18 04:20 METAR KIAB 181020Z AUTO 00000KT 5/8SM R19/1800VP6000FT BR CLR M02/M02 A3008 RMK
                 AO2 SLP198 $ =
2017-12-18 04:18 METAR KIAB 181018Z AUTO 25003KT 1/2SM R19/1600V4000FT M CLR M02/M03 A3008 RMK
                 AO2 SLP198 $ =
2017-12-18 04:08 METAR KIAB 181008Z AUTO 22004KT 3/8SM R19/1200V2600FT M CLR M02/M02 A3007 RMK
                 AO2 VIS 3/8V4 SLP194 $ =
2017-12-18 04:07 METAR KIAB 181007Z AUTO 22004KT 5/8SM R19/1200V3500FT BR CLR M02/M02 A3006 RMK
                 AO2 VIS 5/8V4 SLP191 $ =
2017-12-18 04:06 METAR KIAB 181006Z AUTO 22004KT 1SM R19/1400VP6000FT BR CLR M01/M02 A3006 RMK
                 AO2 VIS 1V4 VIS 1/4 RWY01 SLP191 $ =
2017-12-18 04:05 METAR KIAB 181005Z AUTO 22004KT 1 1/4SM R19/5500FT BR CLR M01/M02 A3006 RMK AO2
                 VIS 1 1/4V4 VIS 1/4 RWY01 SLP191 $ =
2017-12-18 04:04 METAR KIAB 181004Z AUTO 22004KT 1 7/8SM BR CLR M01/M02 A3006 RMK AO2 VIS 1 7/8V4
                 VIS 3/8 RWY01 SLP191 $ =
2017-12-18 04:03 METAR KIAB 181003Z AUTO 22004KT 2 1/2SM BR CLR M01/M02 A3006 RMK AO2 VIS 2 1/2V4
                 VIS 3/8 RWY01 SLP191 $ =
2017-12-18 04:02 METAR KIAB 181002Z AUTO 21004KT 2 3/4SM BR CLR M01/M02 A3006 RMK AO2 VIS 2 3/4V4
                 VIS 3/8 RWY01 SLP191 $ =
2017-12-18 03:56 METAR KIAB 180956Z AUTO 00000KT 4SM BR CLR 00/M01 A3006 RMK AO2 VIS 3/8 RWY01
                 SLP190 T10031009 $ =
2017-12-18 03:50 METAR KIAB 180950Z AUTO 00000KT 3SM BR CLR 00/M01 A3006 RMK AO2 VIS 3/8 RWY01
                 SLP190 $ =
2017-12-18 03:47 METAR KIAB 180947Z AUTO 00000KT 2 3/4SM BR CLR M01/M01 A3006 RMK AO2 VIS 1 3/4V2
                 3/4 VIS 1/2 RWY01 SLP191 $ =
2017-12-18 03:43 METAR KIAB 180943Z AUTO 00000KT 2 1/4SM BR CLR M01/M01 A3006 RMK AO2 VIS 1 3/4V2
                 1/2 VIS 5/8 RWY01 SLP191 $ =
2017-12-18 03:42 METAR KIAB 180942Z AUTO 00000KT 2SM BR CLR M01/M01 A3006 RMK AO2 VIS 1 3/4V2 1/2
                 VIS 5/8 RWY01 SLP191 $ =
2017-12-18 03:38 METAR KIAB 180938Z AUTO 00000KT 1 7/8SM BR CLR M01/M02 A3006 RMK AO2 VIS 1 3/4V2
                 1/2 VIS 5/8 RWY01 SLP191 $ =
2017-12-18 03:37 METAR KIAB 180937Z AUTO 00000KT 2SM BR CLR M01/M02 A3006 RMK AO2 VIS 1 7/8V2 1/2
                 VIS 5/8 RWY01 SLP191 $ =
2017-12-18 03:29 METAR KIAB 180929Z AUTO 23003KT 2 1/4SM BR CLR M01/M01 A3007 RMK AO2 VIS 1V2 1/2
                 VIS 3/8 RWY01 SLP194 $ =
2017-12-18 03:28 METAR KIAB 180928Z AUTO 23003KT 2SM BR CLR M01/M02 A3007 RMK AO2 VIS 1V2 1/4 VIS
                 3/8 RWY01 SLP194 $ =
2017-12-18 03:27 METAR KIAB 180927Z AUTO 23003KT 1 5/8SM BR CLR M01/M02 A3006 RMK AO2 VIS 1V2 3/4
                 VIS 3/8 RWY01 SLP191 $ =
2017-12-18 03:26 METAR KIAB 180926Z AUTO 23003KT 1 3/8SM R19/6000FT BR CLR M01/M02 A3007 RMK AO2
                 VIS 1V3 VIS 3/8 RWY01 SLP194 $ =
2017-12-18 03:25 METAR KIAB 180925Z AUTO 24003KT 1 1/8SM R19/5000FT BR CLR M01/M02 A3007 RMK AO2
                 VIS 1V3 VIS 3/8 RWY01 SLP194 $ =
2017-12-18 03:24 METAR KIAB 180924Z AUTO 24003KT 1SM R19/2000VP6000FT BR CLR M01/M02 A3006 RMK
                 AO2 VIS 1V3 VIS 3/8 RWY01 SLP191 $ =
2017-12-18 03:23 METAR KIAB 180923Z AUTO 24003KT 1 1/8SM R19/4500FT BR CLR M01/M02 A3006 RMK AO2
                 VIS 1V4 VIS 3/8 RWY01 SLP191 $ =
2017-12-18 03:22 METAR KIAB 180922Z AUTO 24003KT 1 3/8SM R19/6000FT BR CLR M01/M02 A3006 RMK AO2
                 VIS 1 1/8V4 VIS 3/8 RWY01 SLP191 $ =
2017-12-18 03:21 METAR KIAB 180921Z AUTO 24004KT 1 3/4SM BR CLR M01/M02 A3006 RMK AO2 VIS 1 3/8V4
                 VIS 3/8 RWY01 SLP191 $ =
2017-12-18 03:20 METAR KIAB 180920Z AUTO 23004KT 2SM BR CLR M01/M02 A3006 RMK AO2 VIS 1 3/4V4 VIS
                 3/8 RWY01 SLP191 $ =
2017-12-18 03:19 METAR KIAB 180919Z AUTO 22004KT 2 1/4SM BR CLR M01/M02 A3006 RMK AO2 VIS 2V4 VIS
                 1/4 RWY01 SLP191 $ =
2017-12-18 03:18 METAR KIAB 180918Z AUTO 22004KT 2 3/4SM BR CLR M01/M02 A3006 RMK AO2 VIS 2 1/4V4
                 VIS 1/4 RWY01 SLP191 $ =
2017-12-18 02:56 METAR KIAB 180856Z AUTO 25003KT 7SM CLR 00/M01 A3006 RMK AO2 VIS 3/8 RWY01
                 SLP190 T10011010 55001 $ =
2017-12-18 01:56 METAR KIAB 180756Z AUTO 00000KT 8SM CLR 02/01 A3005 RMK AO2 VIS 1/2 RWY01 SLP185
                 T00190009 $ =
2017-12-18 00:56 METAR KIAB 180656Z AUTO 25004KT 10SM CLR 03/02 A3005 RMK AO2 SLP184 T00280016 $
                 =
2017-12-17 23:56 METAR KIAB 180556Z AUTO 23005KT 8SM CLR 02/01 A3006 RMK AO2 SLP189 T00200008
                 10073 20020 400820020 52012 $ =
2017-12-17 22:56 METAR KIAB 180456Z AUTO 26006KT 10SM CLR 04/02 A3005 RMK AO2 SLP184 T00380023 $
                 =
2017-12-17 21:56 METAR KIAB 180356Z AUTO 23006KT 10SM CLR 04/02 A3004 RMK AO2 SLP181 T00390021 $
                 =
2017-12-17 20:56 METAR KIAB 180256Z AUTO 22005KT 10SM CLR 05/03 A3002 RMK AO2 SLP174 T00460025
                 50002 $ =
2017-12-17 20:25 METAR KIAB 180225Z AUTO 21005KT 10SM SCT026 05/03 A3003 RMK AO2 SLP177 $ =
2017-12-17 19:56 METAR KIAB 180156Z AUTO 21006KT 10SM OVC024 06/03 A3003 RMK AO2 CIG 023 RWY01
                 SLP177 T00610031 $ =
2017-12-17 18:56 METAR KIAB 180056Z AUTO 22006KT 10SM OVC023 07/04 A3003 RMK AO2 CIG 021 RWY01
                 SLP177 T00730035 $ =
2017-12-17 18:42 METAR KIAB 180042Z AUTO 22005KT 10SM OVC022 07/04 A3002 RMK AO2 CIG 020 RWY01
                 SLP174 $ =
2017-12-17 17:56 METAR KIAB 172356Z COR AUTO 23008KT 10SM OVC018 08/03 A3003 RMK AO2 CIG 017
                 RWY01 SLPNO ALSTG ESTMD 10082 20072 50010 $ COR 0002 =
2017-12-17 16:56 METAR KIAB 172256Z AUTO 23007KT 10SM OVC018 08/03 A2999 RMK AO2 CIG 017 RWY01
                 SLP163 T00750034 =
2017-12-17 15:56 METAR KIAB 172156Z AUTO 22005KT 10SM OVC017 08/04 A2999 RMK AO2 SLP163 T00750037
                 =
2017-12-17 14:56 METAR KIAB 172056Z AUTO 25006KT 10SM OVC016 07/04 A2999 RMK AO2 CIG 015 RWY01
                 SLP163 T00740036 53001 =
2017-12-17 14:49 METAR KIAB 172049Z AUTO 24006KT 10SM OVC016 07/04 A2999 RMK AO2 CIG 013 RWY01
                 SLP163 =
2017-12-17 14:18 METAR KIAB 172018Z AUTO 23009KT 10SM OVC014 07/04 A2999 RMK AO2 CIG 013 RWY01
                 SLP163 =
2017-12-17 13:56 METAR KIAB 171956Z AUTO 23009KT 10SM OVC015 08/04 A2998 RMK AO2 CIG 014 RWY01
                 SLP159 T00760040 =
2017-12-17 12:56 METAR KIAB 171856Z AUTO 23004KT 10SM OVC015 08/04 A2998 RMK AO2 CIG 013 RWY01
                 SLP159 T00810041 =
2017-12-17 12:47 METAR KIAB 171847Z AUTO 25004KT 10SM OVC015 08/04 A2999 RMK AO2 CIG 013 RWY01
                 SLP163 =
2017-12-17 11:56 METAR KIAB 171756Z AUTO 22003KT 10SM OVC013 08/04 A2998 RMK AO2 CIG 012 RWY01
                 SLP159 T00780042 10078 20045 58013 =
2017-12-17 10:56 METAR KIAB 171656Z AUTO 33006KT 10SM OVC013 07/04 A3000 RMK AO2 SLP164 T00740042
                 =
2017-12-17 10:13 METAR KIAB 171613Z AUTO 31006KT 10SM OVC014 07/05 A3001 RMK AO2 CIG 013 RWY01
                 SLP167 =
2017-12-17 09:56 METAR KIAB 171556Z AUTO 29006KT 10SM OVC016 07/05 A3002 RMK AO2 SLP171 T00710047
                 =
2017-12-17 08:56 METAR KIAB 171456Z AUTO 23007KT 10SM OVC018 07/05 A3002 RMK AO2 SLP171 T00650050
                 52020 =
2017-12-17 07:56 METAR KIAB 171356Z AUTO 22007KT 10SM FEW009 OVC015 06/05 A3002 RMK AO2 SLP171
                 T00580051 =
2017-12-17 07:20 METAR KIAB 171320Z AUTO 22009KT 10SM SCT010 OVC016 05/05 A3000 RMK AO2 OVC V BKN
                 SLP165 =
2017-12-17 07:17 METAR KIAB 171317Z AUTO 22010KT 10SM BKN014 05/04 A3000 RMK AO2 SLP165 =
2017-12-17 07:08 METAR KIAB 171308Z AUTO 21008KT 9SM SCT009 BKN016 05/04 A2999 RMK AO2 CIG
                 011V016 SLP162 =
2017-12-17 07:02 METAR KIAB 171302Z AUTO 21007KT 10SM BKN011 05/04 A2998 RMK AO2 BKN V SCT SLP158
                 =
2017-12-17 06:56 METAR KIAB 171256Z AUTO 21007KT 10SM SCT011 05/04 A2998 RMK AO2 PRESRR SLP158
                 T00460039 =
2017-12-17 06:35 METAR KIAB 171235Z AUTO 22007KT 10SM SCT009 05/04 A2995 RMK AO2 SLP148 =
2017-12-17 05:56 METAR KIAB 171156Z AUTO 21010KT 10SM OVC008 06/05 A2996 RMK AO2 SLP150 60001
                 70004 T00600051 10064 20057 53010 =
2017-12-17 04:56 METAR KIAB 171056Z AUTO 21011KT 10SM OVC008 06/05 A2994 RMK AO2 SLP142 T00600050
                 =

Support USWX by starting your Amazon purchase here.